Time;durP1;ratioP1;P1;durP2;ratioP2;P2;SDS_P1;SDS_P2;PMS_P1;PMS_P2;Temp;Humidity;BMP_temperature;BMP_pressure;BME280_temperature;BME280_humidity;BME280_pressure;Samples;Min_cycle;Max_cycle;Signal;HPM_P1;HPM_P2
2024/03/18 00:02:48;;;;;;;6.18;1.10;;;;;;;8.74;70.92;99838.19;5028935;28;20751;-44
2024/03/18 00:05:16;;;;;;;2.95;0.80;;;;;;;8.74;71.66;99845.94;4988630;28;20050;-44
2024/03/18 00:07:42;;;;;;;4.13;1.50;;;;;;;8.69;71.28;99842.50;5038564;28;20050;-45
2024/03/18 00:10:09;;;;;;;7.00;1.50;;;;;;;8.69;71.16;99855.41;4988476;28;20054;-43
2024/03/18 00:12:37;;;;;;;9.90;1.13;;;;;;;8.69;71.75;99851.97;4992861;28;20407;-43
2024/03/18 00:15:03;;;;;;;9.63;0.70;;;;;;;8.65;71.94;99845.91;5003662;28;20054;-43
2024/03/18 00:17:29;;;;;;;3.90;1.70;;;;;;;8.64;71.69;99849.34;5001526;28;20054;-42
2024/03/18 00:19:54;;;;;;;6.30;1.83;;;;;;;8.60;72.23;99857.97;5006155;28;20057;-42
2024/03/18 00:22:20;;;;;;;4.43;1.10;;;;;;;8.61;72.31;99857.09;5021152;28;20095;-44
2024/03/18 00:24:47;;;;;;;7.22;1.67;;;;;;;8.60;72.25;99852.78;5020779;28;20049;-42
2024/03/18 00:27:13;;;;;;;6.13;1.42;;;;;;;8.56;72.17;99861.38;5028795;28;20448;-42
2024/03/18 00:29:39;;;;;;;7.93;1.92;;;;;;;8.54;71.86;99855.38;5023607;28;20057;-43
2024/03/18 00:32:05;;;;;;;4.13;1.17;;;;;;;8.46;72.69;99856.19;5042499;28;20103;-43
2024/03/18 00:34:32;;;;;;;10.57;1.52;;;;;;;8.48;72.48;99846.72;5024325;28;20041;-43
2024/03/18 00:36:58;;;;;;;2.05;0.93;;;;;;;8.45;72.26;99849.28;5026141;28;20057;-43
2024/03/18 00:39:24;;;;;;;5.40;1.30;;;;;;;8.46;72.87;99856.19;5028738;28;20076;-43
2024/03/18 00:41:52;;;;;;;7.88;1.90;;;;;;;8.44;72.26;99850.13;5063764;28;20489;-42
2024/03/18 00:44:20;;;;;;;10.02;1.55;;;;;;;8.41;72.87;99860.44;5030286;28;20053;-42
2024/03/18 00:46:47;;;;;;;6.32;1.83;;;;;;;8.42;72.45;99867.34;5025473;28;20057;-43
2024/03/18 00:49:14;;;;;;;4.85;1.83;;;;;;;8.40;73.05;99866.47;5028754;28;20053;-42
2024/03/18 00:51:41;;;;;;;4.40;1.90;;;;;;;8.40;72.22;99871.63;5002996;28;20864;-44
2024/03/18 00:54:09;;;;;;;5.90;1.02;;;;;;;8.38;73.23;99873.38;5010372;28;20068;-43
2024/03/18 00:56:36;;;;;;;4.60;1.02;;;;;;;8.35;72.58;99869.03;5008218;28;20050;-44
2024/03/18 00:59:04;;;;;;;5.65;1.63;;;;;;;8.33;73.09;99869.88;5038097;28;20041;-42
2024/03/18 01:01:30;;;;;;;8.70;1.33;;;;;;;8.31;72.77;99879.34;5033792;28;20049;-43
2024/03/18 01:03:56;;;;;;;3.50;1.42;;;;;;;8.26;73.32;99881.03;5030826;28;20387;-45
2024/03/18 01:06:24;;;;;;;3.83;1.27;;;;;;;8.23;73.68;99875.03;5020432;28;20053;-43
2024/03/18 01:08:51;;;;;;;7.05;1.42;;;;;;;8.28;72.99;99879.34;5001527;28;20049;-42
2024/03/18 01:11:19;;;;;;;5.60;1.08;;;;;;;8.26;72.83;99881.03;5009830;28;20052;-41
2024/03/18 01:13:47;;;;;;;8.23;1.85;;;;;;;8.26;73.29;99879.34;5022463;28;20049;-43
2024/03/18 01:16:17;;;;;;;2.00;0.70;;;;;;;8.16;73.26;99873.28;5001733;28;20058;-42
2024/03/18 01:18:43;;;;;;;1.88;0.98;;;;;;;8.21;73.72;99871.56;5024472;28;20741;-44
2024/03/18 01:21:11;;;;;;;8.30;1.63;;;;;;;8.22;72.74;99868.16;5017104;28;20041;-43
2024/03/18 01:23:37;;;;;;;7.32;1.00;;;;;;;8.19;73.57;99862.97;5018844;28;20054;-42
2024/03/18 01:26:04;;;;;;;8.02;1.33;;;;;;;8.21;72.89;99866.41;5013000;28;20046;-45
2024/03/18 01:28:31;;;;;;;7.22;1.55;;;;;;;8.20;73.28;99859.53;5054987;28;20041;-47
2024/03/18 01:31:03;;;;;;;4.88;1.10;;;;;;;8.20;72.57;99864.69;5010144;28;20143;-43
2024/03/18 01:33:31;;;;;;;4.45;0.90;;;;;;;8.16;73.22;99862.94;5014370;28;20116;-44
2024/03/18 01:35:58;;;;;;;9.00;1.38;;;;;;;8.13;72.73;99865.50;5043942;28;20038;-43
2024/03/18 01:38:24;;;;;;;8.15;1.48;;;;;;;8.12;73.33;99866.38;4996195;28;20049;-43
2024/03/18 01:40:50;;;;;;;3.80;1.23;;;;;;;8.08;73.27;99864.63;4988418;28;20046;-43
2024/03/18 01:43:16;;;;;;;7.57;1.02;;;;;;;8.05;73.96;99851.72;4983130;28;20487;-42
2024/03/18 01:45:43;;;;;;;5.00;1.20;;;;;;;7.98;73.63;99854.25;5043108;28;20049;-44
2024/03/18 01:48:10;;;;;;;6.85;1.42;;;;;;;7.98;72.47;99863.75;5003503;28;20052;-43
2024/03/18 01:50:36;;;;;;;8.73;1.50;;;;;;;7.91;72.76;99867.97;4998737;28;20050;-43
2024/03/18 01:53:03;;;;;;;5.68;1.15;;;;;;;7.90;73.86;99863.69;5003520;28;20095;-43
2024/03/18 01:55:29;;;;;;;1.08;0.85;;;;;;;7.82;73.16;99855.03;5007423;28;20045;-43
2024/03/18 01:57:56;;;;;;;9.48;1.27;;;;;;;7.81;74.37;99871.38;5011103;28;20056;-44
2024/03/18 02:00:32;;;;;;;5.72;1.27;;;;;;;7.82;72.86;99879.13;5004207;28;20780;-43
2024/03/18 02:03:00;;;;;;;7.45;1.08;;;;;;;7.79;73.08;99867.91;5006291;28;20077;-43
2024/03/18 02:05:26;;;;;;;6.28;0.68;;;;;;;7.74;73.50;99867.03;4985563;28;20042;-42
2024/03/18 02:07:52;;;;;;;7.97;1.20;;;;;;;7.72;73.25;99872.19;5021548;28;20099;-41
2024/03/18 02:10:17;;;;;;;8.40;1.13;;;;;;;7.65;74.13;99876.44;5034574;28;20132;-42
2024/03/18 02:12:43;;;;;;;8.55;1.13;;;;;;;7.60;74.02;99878.09;5007347;28;20498;-45
2024/03/18 02:15:09;;;;;;;4.43;1.35;;;;;;;7.59;74.77;99871.22;5031918;28;20160;-42
2024/03/18 02:17:35;;;;;;;3.22;0.80;;;;;;;7.54;74.30;99872.94;5015575;28;20053;-41
2024/03/18 02:20:00;;;;;;;2.47;1.00;;;;;;;7.45;73.68;99864.28;5005053;28;20060;-42
2024/03/18 02:22:26;;;;;;;11.90;1.23;;;;;;;7.47;74.53;99861.72;4990482;28;22325;-43
2024/03/18 02:24:51;;;;;;;4.13;1.50;;;;;;;7.40;74.54;99865.09;5000308;28;20079;-43
2024/03/18 02:27:17;;;;;;;7.25;1.30;;;;;;;7.40;74.12;99859.94;5011884;28;20049;-43
2024/03/18 02:29:43;;;;;;;6.05;0.82;;;;;;;7.37;75.13;99862.50;5006381;28;20590;-43
2024/03/18 02:32:10;;;;;;;6.18;1.17;;;;;;;7.39;74.34;99863.34;5007675;28;20049;-44
2024/03/18 02:34:36;;;;;;;12.32;1.98;;;;;;;7.35;73.91;99866.75;5003222;28;20049;-42
2024/03/18 02:37:02;;;;;;;9.43;1.45;;;;;;;7.34;74.82;99865.91;5018622;28;20063;-42
2024/03/18 02:39:29;;;;;;;7.40;1.88;;;;;;;7.30;74.58;99856.44;5012007;28;20046;-43
2024/03/18 02:41:55;;;;;;;3.72;1.35;;;;;;;7.26;75.54;99865.00;5012470;28;20056;-44
2024/03/18 02:44:20;;;;;;;2.92;0.85;;;;;;;7.18;75.70;99865.78;5011180;28;20049;-41
2024/03/18 02:46:47;;;;;;;5.13;1.00;;;;;;;7.16;74.45;99872.63;5000429;28;20468;-42
2024/03/18 02:49:14;;;;;;;6.53;1.00;;;;;;;7.17;75.22;99869.19;5012908;28;20050;-41
2024/03/18 02:51:41;;;;;;;2.13;0.90;;;;;;;7.13;75.17;99867.44;4997853;28;20055;-42
2024/03/18 02:54:06;;;;;;;7.72;1.55;;;;;;;7.12;74.53;99868.31;5005963;28;20061;-43
2024/03/18 02:56:32;;;;;;;5.75;0.85;;;;;;;7.10;74.72;99857.16;4991758;28;20076;-44
2024/03/18 02:58:59;;;;;;;4.80;1.13;;;;;;;7.10;74.81;99862.31;5015821;28;20355;-45
2024/03/18 03:01:26;;;;;;;6.35;2.47;;;;;;;7.06;75.59;99868.28;5020119;28;20046;-43
2024/03/18 03:03:54;;;;;;;7.68;1.27;;;;;;;7.06;75.36;99868.28;5014723;28;20064;-42
2024/03/18 03:06:20;;;;;;;7.32;1.30;;;;;;;7.05;75.45;99869.09;4990232;28;20050;-43
2024/03/18 03:08:46;;;;;;;1.30;0.82;;;;;;;7.00;76.03;99866.50;5025155;28;20124;-41
2024/03/18 03:11:12;;;;;;;9.63;1.40;;;;;;;7.02;75.67;99864.78;4998173;28;20526;-44
2024/03/18 03:13:38;;;;;;;11.32;2.08;;;;;;;7.00;74.63;99865.63;5002080;28;20073;-41
2024/03/18 03:16:08;;;;;;;7.70;1.02;;;;;;;6.99;75.37;99853.63;4976032;28;20506;-43
2024/03/18 03:18:34;;;;;;;6.85;1.42;;;;;;;6.91;76.42;99856.97;4991922;28;20046;-41
2024/03/18 03:21:00;;;;;;;4.70;0.98;;;;;;;6.91;76.24;99851.84;4996805;28;20077;-43
2024/03/18 03:23:25;;;;;;;8.27;1.23;;;;;;;6.92;75.15;99852.69;5009402;28;20065;-43
2024/03/18 03:25:51;;;;;;;9.98;1.27;;;;;;;6.91;76.69;99846.69;5016348;28;20046;-41
2024/03/18 03:28:17;;;;;;;5.75;1.17;;;;;;;6.92;75.53;99848.41;5004326;28;20058;-43
2024/03/18 03:30:44;;;;;;;3.80;0.90;;;;;;;6.87;75.69;99860.38;4995063;28;20457;-41
2024/03/18 03:33:10;;;;;;;6.55;2.13;;;;;;;6.87;75.81;99860.38;5035843;28;20057;-42
2024/03/18 03:35:36;;;;;;;4.25;1.15;;;;;;;6.83;76.13;99848.31;5006448;28;20057;-41
2024/03/18 03:38:01;;;;;;;7.47;1.05;;;;;;;6.88;76.26;99851.78;5036940;28;20049;-44
2024/03/18 03:40:27;;;;;;;9.20;1.25;;;;;;;6.84;75.87;99850.03;5031626;28;20059;-42
2024/03/18 03:42:53;;;;;;;9.27;1.40;;;;;;;6.86;76.38;99863.78;5040892;28;20601;-43
2024/03/18 03:45:24;;;;;;;7.00;1.63;;;;;;;6.85;76.43;99856.91;5003331;28;20549;-42
2024/03/18 03:47:49;;;;;;;;;;;;;;;6.76;78.10;99859.41;4973800;28;20058;-45
2024/03/18 03:50:15;;;;;;;4.70;0.93;;;;;;;6.82;76.11;99864.59;4994083;28;20034;-44
2024/03/18 03:52:41;;;;;;;10.95;1.52;;;;;;;6.76;78.70;99861.97;4985223;28;20100;-43
2024/03/18 03:55:08;;;;;;;4.72;1.10;;;;;;;6.80;77.58;99859.44;4997983;28;20046;-42
2024/03/18 03:57:34;;;;;;;3.85;0.88;;;;;;;6.76;77.92;99862.81;4976227;28;20065;-41
2024/03/18 04:00:00;;;;;;;8.48;1.55;;;;;;;6.78;76.85;99866.28;4982255;28;20050;-41
2024/03/18 04:02:26;;;;;;;5.60;0.80;;;;;;;6.78;77.41;99868.88;4993484;28;20052;-43
2024/03/18 04:04:52;;;;;;;11.77;1.73;;;;;;;6.79;77.05;99874.88;5007602;28;20075;-45
2024/03/18 04:07:23;;;;;;;14.88;1.65;;;;;;;6.80;77.55;99879.19;5013596;28;20673;-45
2024/03/18 04:09:50;;;;;;;9.57;1.73;;;;;;;6.79;77.14;99874.88;5002294;28;20466;-44
2024/03/18 04:12:18;;;;;;;6.22;0.90;;;;;;;6.80;78.48;99868.88;5034441;28;20042;-43
2024/03/18 04:14:44;;;;;;;13.07;1.38;;;;;;;6.82;77.89;99869.75;4985866;28;20840;-42
2024/03/18 04:17:11;;;;;;;3.85;1.52;;;;;;;6.80;77.36;99871.47;5013207;28;20574;-42
2024/03/18 04:19:37;;;;;;;4.47;1.02;;;;;;;6.81;78.24;99871.47;5039615;28;20053;-44
2024/03/18 04:22:03;;;;;;;9.65;2.03;;;;;;;6.84;76.97;99874.91;5013260;28;20062;-42
2024/03/18 04:24:29;;;;;;;5.57;1.20;;;;;;;6.78;77.59;99881.75;4995930;28;20038;-42
2024/03/18 04:26:54;;;;;;;6.45;1.63;;;;;;;6.81;77.08;99875.75;5012296;28;20050;-41
2024/03/18 04:29:21;;;;;;;8.13;1.13;;;;;;;6.80;78.87;99869.72;5011364;28;20101;-42
2024/03/18 04:31:47;;;;;;;9.88;1.45;;;;;;;6.82;77.20;99877.47;4998746;28;20049;-42
2024/03/18 04:34:12;;;;;;;8.80;1.60;;;;;;;6.81;78.67;99876.63;5016408;28;20145;-42
2024/03/18 04:36:38;;;;;;;5.32;1.45;;;;;;;6.80;77.69;99884.34;5006808;28;20478;-42
2024/03/18 04:39:04;;;;;;;6.57;1.13;;;;;;;6.79;77.25;99891.19;4991217;28;20046;-42
2024/03/18 04:41:29;;;;;;;8.48;1.33;;;;;;;6.78;78.82;99902.34;5021836;28;20066;-42
2024/03/18 04:43:55;;;;;;;5.28;1.40;;;;;;;6.78;77.90;99884.31;5002119;28;20046;-42
2024/03/18 04:46:20;;;;;;;6.72;1.52;;;;;;;6.78;78.45;99886.00;5005065;28;20073;-42
2024/03/18 04:48:46;;;;;;;9.40;1.10;;;;;;;6.78;77.30;99886.00;5042810;28;20520;-44
2024/03/18 04:51:12;;;;;;;7.72;1.58;;;;;;;6.75;77.27;99883.44;5020417;28;20048;-42
2024/03/18 04:53:37;;;;;;;7.93;1.80;;;;;;;6.71;79.11;99889.38;5011871;28;20441;-43
2024/03/18 04:56:03;;;;;;;3.33;1.27;;;;;;;6.69;78.00;99887.66;5012364;28;20465;-45
2024/03/18 04:58:29;;;;;;;5.03;0.90;;;;;;;6.69;78.92;99885.06;5016751;28;20057;-43
2024/03/18 05:00:55;;;;;;;9.50;1.45;;;;;;;6.67;78.32;99884.22;5015293;28;20124;-44
2024/03/18 05:03:21;;;;;;;8.85;1.30;;;;;;;6.67;77.92;99894.50;5011907;28;20473;-44
2024/03/18 05:05:46;;;;;;;14.15;1.95;;;;;;;6.68;78.50;99897.94;5016723;28;20052;-42
2024/03/18 05:08:12;;;;;;;5.82;1.05;;;;;;;6.65;79.15;99896.19;5014932;28;20053;-43
2024/03/18 05:10:40;;;;;;;11.80;1.10;;;;;;;6.64;77.60;99904.75;5008073;28;20061;-45
2024/03/18 05:13:06;;;;;;;6.75;1.30;;;;;;;6.64;78.41;99903.88;4997154;28;20396;-44
2024/03/18 05:15:32;;;;;;;8.25;1.27;;;;;;;6.62;77.83;99903.88;4988474;28;20070;-43
2024/03/18 05:17:58;;;;;;;5.05;0.90;;;;;;;6.61;78.08;99899.56;5013630;28;20045;-43
2024/03/18 05:20:24;;;;;;;5.32;1.38;;;;;;;6.61;78.25;99904.72;5010030;28;20073;-43
2024/03/18 05:22:49;;;;;;;8.10;1.58;;;;;;;6.60;79.37;99899.56;5041823;28;20061;-42
2024/03/18 05:25:15;;;;;;;8.90;1.48;;;;;;;6.60;78.76;99902.13;5043856;28;20609;-45
2024/03/18 05:27:41;;;;;;;8.13;1.98;;;;;;;6.63;78.29;99909.88;5042717;28;20061;-41
2024/03/18 05:30:07;;;;;;;5.50;1.25;;;;;;;6.63;79.57;99905.63;5006511;28;20042;-42
2024/03/18 05:32:33;;;;;;;6.18;1.60;;;;;;;6.66;78.78;99902.22;5010925;28;20418;-42
2024/03/18 05:34:59;;;;;;;8.43;1.90;;;;;;;6.64;78.76;99904.75;5017087;28;20092;-44
2024/03/18 05:37:25;;;;;;;5.93;1.48;;;;;;;6.70;80.16;99903.97;5009676;28;20053;-42
2024/03/18 05:39:52;;;;;;;10.23;1.60;;;;;;;6.73;79.05;99903.13;5007562;28;20068;-44
2024/03/18 05:42:18;;;;;;;9.32;1.45;;;;;;;6.76;79.74;99908.31;5020685;28;20486;-42
2024/03/18 05:44:44;;;;;;;5.63;1.30;;;;;;;6.82;78.31;99913.50;5005153;28;20046;-42
2024/03/18 05:47:09;;;;;;;8.52;1.10;;;;;;;6.86;79.74;99904.97;5042869;28;20062;-43
2024/03/18 05:49:35;;;;;;;13.20;1.30;;;;;;;6.88;78.52;99903.28;5009305;28;20491;-42
2024/03/18 05:52:01;;;;;;;6.13;0.88;;;;;;;6.90;79.32;99903.31;5053614;28;20046;-42
2024/03/18 05:54:27;;;;;;;16.48;1.67;;;;;;;6.91;78.97;99898.19;5007639;28;20155;-42
2024/03/18 05:56:52;;;;;;;12.43;1.23;;;;;;;6.92;79.67;99899.03;5003299;28;20056;-41
2024/03/18 05:59:18;;;;;;;6.47;0.98;;;;;;;6.90;79.99;99911.91;5021585;28;20498;-42
2024/03/18 06:01:44;;;;;;;6.72;1.70;;;;;;;6.91;78.91;99916.19;5014917;28;20065;-43
2024/03/18 06:04:11;;;;;;;13.63;1.33;;;;;;;6.91;79.38;99911.06;5020752;28;20062;-42
2024/03/18 06:06:38;;;;;;;18.25;1.85;;;;;;;6.93;79.14;99906.75;5010902;28;20050;-42
2024/03/18 06:09:04;;;;;;;7.65;1.13;;;;;;;6.96;79.03;99921.41;5008591;28;20060;-41
2024/03/18 06:11:30;;;;;;;11.45;1.45;;;;;;;6.97;79.12;99914.53;5008042;28;20065;-47
2024/03/18 06:13:56;;;;;;;14.35;1.67;;;;;;;6.94;78.81;99913.66;5005736;28;20079;-43
2024/03/18 06:16:21;;;;;;;4.47;1.27;;;;;;;6.94;79.25;99923.97;5009313;28;20133;-44
2024/03/18 06:18:49;;;;;;;5.78;0.90;;;;;;;6.92;78.66;99919.63;5011068;28;20499;-41
2024/03/18 06:21:17;;;;;;;13.30;1.55;;;;;;;6.93;78.98;99918.78;4991127;28;20050;-44
2024/03/18 06:26:19;;;;;;;5.63;1.38;;;;;;;6.96;80.16;99925.69;5050804;27;20390;-45
2024/03/18 06:28:46;;;;;;;9.90;2.03;;;;;;;6.99;79.25;99920.56;5023156;28;20125;-44
2024/03/18 06:31:12;;;;;;;11.50;1.60;;;;;;;7.00;79.75;99922.28;5009792;28;20519;-43
2024/03/18 06:33:38;;;;;;;14.35;2.08;;;;;;;7.00;78.88;99924.88;5029883;28;20506;-42
2024/03/18 06:36:12;;;;;;;13.55;2.20;;;;;;;7.00;79.69;99932.59;5028392;28;20052;-44
2024/03/18 06:38:38;;;;;;;11.85;2.30;;;;;;;7.02;78.32;99925.72;5035234;28;20049;-42
2024/03/18 06:41:05;;;;;;;8.32;1.73;;;;;;;7.03;79.02;99932.63;5034693;28;20054;-42
2024/03/18 06:43:32;;;;;;;11.80;2.28;;;;;;;7.04;79.66;99929.19;5040541;28;20056;-40
2024/03/18 06:45:58;;;;;;;8.73;1.92;;;;;;;7.05;78.96;99918.91;5041230;28;20049;-44
2024/03/18 06:48:23;;;;;;;11.32;2.22;;;;;;;7.05;78.33;99926.63;5039007;28;20053;-43
2024/03/18 06:50:49;;;;;;;9.35;1.58;;;;;;;7.06;77.78;99917.22;5041029;28;20072;-43
2024/03/18 06:53:15;;;;;;;8.85;1.88;;;;;;;7.08;79.05;99920.66;5039988;28;20103;-43
2024/03/18 06:55:44;;;;;;;14.75;2.75;;;;;;;7.11;78.46;99925.84;5037889;28;20057;-43
2024/03/18 06:58:11;;;;;;;8.77;1.90;;;;;;;7.13;78.40;99924.13;5037362;28;20061;-45
2024/03/18 07:00:37;;;;;;;6.30;1.90;;;;;;;7.16;79.04;99929.31;5039433;28;20448;-43
2024/03/18 07:03:03;;;;;;;11.30;2.33;;;;;;;7.22;78.53;99930.22;5035664;28;21628;-45
2024/03/18 07:05:30;;;;;;;5.03;1.75;;;;;;;7.25;78.25;99928.53;5039650;28;20045;-45
2024/03/18 07:07:56;;;;;;;5.75;2.00;;;;;;;7.27;78.37;99933.69;5033616;28;20045;-45
2024/03/18 07:10:22;;;;;;;15.95;1.80;;;;;;;7.30;78.21;99936.31;5038115;28;20071;-44
2024/03/18 07:12:47;;;;;;;8.82;1.92;;;;;;;7.35;78.58;99933.75;5038640;28;20110;-42
2024/03/18 07:15:16;;;;;;;10.80;2.00;;;;;;;7.38;78.57;99929.50;5038254;28;20521;-43
2024/03/18 07:17:43;;;;;;;6.38;0.93;;;;;;;7.42;78.80;99933.84;5020996;28;20108;-43
2024/03/18 07:20:10;;;;;;;12.77;1.92;;;;;;;7.45;79.17;99940.72;5018932;28;20056;-45
2024/03/18 07:22:38;;;;;;;8.43;1.35;;;;;;;7.49;79.21;99939.91;5017442;28;20391;-44
2024/03/18 07:25:05;;;;;;;7.95;1.92;;;;;;;7.55;78.97;99946.81;5047522;28;20245;-41
2024/03/18 07:27:31;;;;;;;6.80;1.65;;;;;;;7.59;78.90;99933.09;5034175;28;20061;-43
2024/03/18 07:29:57;;;;;;;6.72;1.48;;;;;;;7.67;78.54;99936.59;5067429;28;20044;-46
2024/03/18 07:32:24;;;;;;;5.13;1.73;;;;;;;7.77;79.77;99936.69;5065056;28;20049;-46
2024/03/18 07:34:50;;;;;;;12.98;1.73;;;;;;;8.21;79.61;99941.22;5033260;28;20041;-43
2024/03/18 07:37:18;;;;;;;11.48;1.95;;;;;;;9.10;78.96;99940.69;5027892;28;20063;-42
2024/03/18 07:39:45;;;;;;;12.55;1.85;;;;;;;10.10;77.10;99940.66;5019452;28;20060;-43
2024/03/18 07:42:11;;;;;;;7.38;2.03;;;;;;;10.96;75.66;99941.19;5023820;28;20084;-46
2024/03/18 07:44:38;;;;;;;11.68;2.50;;;;;;;11.72;72.88;99946.69;5040893;28;20034;-43
2024/03/18 07:47:04;;;;;;;8.40;1.52;;;;;;;12.32;71.84;99938.31;5016497;28;20053;-44
2024/03/18 07:49:29;;;;;;;9.88;2.15;;;;;;;12.89;70.37;99934.97;5011076;28;20132;-42
2024/03/18 07:51:56;;;;;;;11.88;4.20;;;;;;;13.28;68.06;99932.69;5007119;28;20088;-45
2024/03/18 07:54:22;;;;;;;2.85;1.05;;;;;;;13.45;66.93;99936.75;5009314;28;21506;-43
2024/03/18 07:56:48;;;;;;;8.50;1.70;;;;;;;13.62;66.92;99941.69;5033521;28;20123;-48
2024/03/18 07:59:13;;;;;;;12.10;2.45;;;;;;;13.92;66.59;99943.78;5016102;28;20096;-43
2024/03/18 08:01:39;;;;;;;11.20;2.55;;;;;;;14.18;65.46;99945.06;5019422;28;20125;-45
2024/03/18 08:04:05;;;;;;;8.35;2.38;;;;;;;14.21;65.38;99945.84;5012512;28;20525;-45
2024/03/18 08:06:31;;;;;;;10.57;2.13;;;;;;;14.25;64.58;99939.69;5014689;28;20715;-44
2024/03/18 08:08:56;;;;;;;6.22;1.83;;;;;;;14.42;63.96;99937.63;5010180;28;20038;-44
2024/03/18 08:11:22;;;;;;;9.43;1.58;;;;;;;14.95;65.00;99942.59;5021176;28;20216;-44
2024/03/18 08:13:48;;;;;;;6.57;1.17;;;;;;;15.41;62.78;99945.88;5017238;28;20050;-43
2024/03/18 08:16:13;;;;;;;9.18;1.77;;;;;;;15.74;61.14;99947.66;5005847;28;20525;-44
2024/03/18 08:18:39;;;;;;;4.70;2.13;;;;;;;16.23;60.74;99943.81;5049665;28;20058;-42
2024/03/18 08:21:05;;;;;;;7.03;1.35;;;;;;;16.64;59.89;99939.16;5017555;28;20053;-43
2024/03/18 08:23:30;;;;;;;9.32;2.67;;;;;;;17.06;58.94;99950.16;5023142;28;20041;-44
2024/03/18 08:25:56;;;;;;;4.53;2.08;;;;;;;17.38;58.15;99953.47;5013142;28;20045;-44
2024/03/18 08:28:22;;;;;;;6.63;2.17;;;;;;;17.78;57.92;99953.03;4999901;28;20061;-45
2024/03/18 08:30:47;;;;;;;8.32;1.38;;;;;;;17.95;57.06;99958.56;5006358;28;20096;-45
2024/03/18 08:33:13;;;;;;;7.28;1.75;;;;;;;18.34;56.55;99956.38;5022562;28;20099;-45
2024/03/18 08:35:38;;;;;;;8.75;1.98;;;;;;;18.72;55.44;99954.09;5025140;28;20033;-43
2024/03/18 08:38:05;;;;;;;5.25;1.42;;;;;;;19.09;55.14;99954.44;5024455;28;20846;-45
2024/03/18 08:40:31;;;;;;;6.55;1.27;;;;;;;19.15;53.38;99948.06;5026371;28;20057;-44
2024/03/18 08:42:56;;;;;;;5.32;1.17;;;;;;;19.41;53.48;99956.66;5047773;28;20062;-45
2024/03/18 08:45:22;;;;;;;7.20;1.30;;;;;;;19.38;52.16;99956.78;5025033;28;20079;-45
2024/03/18 08:47:48;;;;;;;6.05;2.53;;;;;;;19.47;51.93;99956.41;5015934;28;20050;-47
2024/03/18 08:50:14;;;;;;;4.10;1.48;;;;;;;19.81;52.56;99956.75;5018724;28;20046;-44
2024/03/18 08:52:40;;;;;;;6.38;1.77;;;;;;;19.79;51.13;99963.84;4990869;28;20533;-46
2024/03/18 08:55:07;;;;;;;6.38;1.75;;;;;;;20.07;51.35;99967.09;5027402;28;20132;-44
2024/03/18 08:57:33;;;;;;;4.82;1.73;;;;;;;20.29;51.00;99967.84;5017870;28;20575;-43
2024/03/18 08:59:59;;;;;;;8.80;2.22;;;;;;;20.62;51.04;99968.16;5009975;28;20046;-42
2024/03/18 09:02:24;;;;;;;4.78;1.42;;;;;;;20.58;50.25;99967.47;4989655;28;20069;-42
2024/03/18 09:04:50;;;;;;;4.53;1.45;;;;;;;20.02;49.67;99981.31;5006646;28;20053;-42
2024/03/18 09:07:16;;;;;;;5.05;1.35;;;;;;;19.20;50.98;99971.53;5005749;28;20065;-44
2024/03/18 09:09:42;;;;;;;6.03;1.77;;;;;;;18.58;52.33;99974.72;5011435;28;20058;-45
2024/03/18 09:12:07;;;;;;;4.72;1.60;;;;;;;17.92;53.11;99978.75;5010284;28;20096;-43
2024/03/18 09:14:33;;;;;;;0.98;0.68;;;;;;;17.19;53.17;99977.63;5005034;28;20038;-42
2024/03/18 09:17:03;;;;;;;2.05;0.95;;;;;;;16.67;55.14;99983.50;5014179;28;20053;-42
2024/03/18 09:19:29;;;;;;;3.33;1.25;;;;;;;16.33;56.25;99979.25;5017544;28;20667;-43
2024/03/18 09:21:55;;;;;;;3.53;1.70;;;;;;;15.96;57.16;99982.84;5018108;28;20061;-42
2024/03/18 09:24:22;;;;;;;3.58;1.13;;;;;;;15.72;57.72;99985.16;4996877;28;20050;-44
2024/03/18 09:26:48;;;;;;;3.33;0.90;;;;;;;15.68;58.46;99985.22;4994218;28;20111;-43
2024/03/18 09:29:13;;;;;;;1.85;0.95;;;;;;;15.51;58.63;99988.25;5014975;28;20045;-44
2024/03/18 09:31:39;;;;;;;3.42;1.08;;;;;;;15.48;58.61;99997.91;4981970;28;20545;-43
2024/03/18 09:34:06;;;;;;;4.30;0.63;;;;;;;15.38;59.41;99998.16;5009480;28;20057;-42
2024/03/18 09:36:33;;;;;;;1.52;0.60;;;;;;;15.22;60.07;100002.00;5000293;28;20050;-42
2024/03/18 09:38:59;;;;;;;1.73;0.43;;;;;;;14.94;60.32;99994.78;5010391;28;20564;-42
2024/03/18 09:41:26;;;;;;;0.90;0.85;;;;;;;14.50;60.57;99998.25;5009874;28;20582;-42
2024/03/18 09:43:52;;;;;;;1.75;0.90;;;;;;;14.30;61.84;99990.81;5014478;28;20058;-43
2024/03/18 09:46:19;;;;;;;1.33;1.23;;;;;;;14.29;62.28;99987.38;5046419;28;20077;-42
2024/03/18 09:48:45;;;;;;;2.83;1.08;;;;;;;14.16;62.40;99988.47;5015001;28;20522;-43
2024/03/18 09:51:16;;;;;;;4.88;1.10;;;;;;;14.08;63.00;99976.47;5005206;28;20045;-43
2024/03/18 09:53:45;;;;;;;2.17;0.70;;;;;;;13.88;62.70;99989.81;5047030;28;20045;-44
2024/03/18 09:56:14;;;;;;;3.00;1.00;;;;;;;13.78;63.28;99989.13;5032340;28;20049;-44
2024/03/18 09:58:40;;;;;;;1.42;1.33;;;;;;;13.65;63.09;99988.50;5006019;28;20434;-44
2024/03/18 10:01:07;;;;;;;3.67;1.38;;;;;;;13.59;63.39;99980.78;5008809;28;20104;-42
2024/03/18 10:03:32;;;;;;;4.30;1.45;;;;;;;13.33;64.11;99982.00;5011675;28;20053;-43
2024/03/18 10:05:58;;;;;;;3.65;1.00;;;;;;;13.33;64.67;99977.69;4992437;28;20046;-42
2024/03/18 10:08:24;;;;;;;3.03;0.90;;;;;;;13.30;64.76;99982.91;4999784;28;20132;-42
2024/03/18 10:10:50;;;;;;;5.60;0.85;;;;;;;13.19;65.67;99979.63;5020529;28;20449;-45
2024/03/18 10:13:18;;;;;;;2.88;1.98;;;;;;;13.14;65.35;99981.44;5012317;28;20104;-43
2024/03/18 10:15:44;;;;;;;5.65;1.17;;;;;;;13.10;65.27;99980.59;4997272;28;20046;-44
2024/03/18 10:18:11;;;;;;;2.63;1.02;;;;;;;13.11;66.66;99983.19;5006923;28;20060;-45
2024/03/18 10:20:38;;;;;;;2.40;0.88;;;;;;;13.21;66.11;99988.28;5002037;28;20058;-43
2024/03/18 10:23:05;;;;;;;1.55;0.60;;;;;;;13.31;66.27;99984.63;5008959;28;20047;-42
2024/03/18 10:25:31;;;;;;;1.00;0.43;;;;;;;13.35;66.43;99991.50;5049433;28;20061;-43
2024/03/18 10:27:57;;;;;;;8.23;1.35;;;;;;;13.37;65.72;99988.88;5019841;28;20049;-42
2024/03/18 10:30:23;;;;;;;2.05;1.23;;;;;;;13.33;66.24;99988.09;5015621;28;20054;-43
2024/03/18 10:32:50;;;;;;;5.60;1.23;;;;;;;13.40;65.84;99988.00;5023556;28;20053;-42
2024/03/18 10:35:21;;;;;;;27.70;12.05;;;;;;;13.31;65.40;99984.63;5016583;28;20062;-43
2024/03/18 10:37:53;;;;;;;31.42;13.63;;;;;;;13.53;65.57;99983.47;5013564;28;20057;-45
2024/03/18 10:40:30;;;;;;;40.63;18.95;;;;;;;14.25;66.26;99980.47;5030174;28;20053;-43
2024/03/18 10:43:00;;;;;;;90.53;32.97;;;;;;;14.65;65.15;99982.31;4997923;28;20061;-45
2024/03/18 10:45:27;;;;;;;41.65;17.77;;;;;;;14.77;63.98;99970.78;5044688;28;20519;-45
2024/03/18 10:47:55;;;;;;;24.13;10.27;;;;;;;14.89;63.56;99974.00;5020831;28;20046;-42
2024/03/18 10:50:23;;;;;;;18.30;5.95;;;;;;;15.19;63.55;99971.63;5022788;28;20053;-44
2024/03/18 10:52:50;;;;;;;2.30;1.10;;;;;;;15.64;63.45;99977.53;5017237;28;20054;-44
2024/03/18 10:55:17;;;;;;;3.85;1.08;;;;;;;15.85;62.34;99973.53;5024018;28;20064;-42
2024/03/18 10:57:50;;;;;;;2.67;0.70;;;;;;;15.90;61.48;99979.47;5021831;28;20057;-43
2024/03/18 11:00:18;;;;;;;1.90;1.05;;;;;;;16.00;62.01;99969.66;5007062;28;20054;-45
2024/03/18 11:03:03;;;;;;;13.02;5.10;;;;;;;16.07;61.66;99978.19;5007143;28;20050;-44
2024/03/18 11:05:32;;;;;;;7.93;3.25;;;;;;;15.89;60.47;99980.38;5009657;28;20053;-45
2024/03/18 11:08:00;;;;;;;3.00;1.10;;;;;;;16.02;61.25;99982.69;5022093;28;20057;-44
2024/03/18 11:10:31;;;;;;;3.22;0.95;;;;;;;16.07;60.87;99980.81;5020547;28;20057;-45
2024/03/18 11:13:18;;;;;;;5.43;1.95;;;;;;;15.86;60.47;99976.97;5048856;28;20056;-44
2024/03/18 11:18:25;;;;;;;4.30;1.00;;;;;;;16.10;61.45;99969.41;5029091;28;20398;-46
2024/03/18 11:20:53;;;;;;;4.95;1.83;;;;;;;16.24;59.63;99976.91;5040056;28;20046;-44
2024/03/18 11:23:20;;;;;;;5.25;1.13;;;;;;;16.22;59.62;99973.47;4990818;28;20518;-45
2024/03/18 11:26:07;;;;;;;6.88;2.17;;;;;;;16.10;59.43;99978.13;5012944;28;20052;-45
2024/03/18 11:31:17;;;;;;;6.60;2.05;;;;;;;16.02;60.42;99972.25;5062044;28;20398;-45
2024/03/18 11:33:44;;;;;;;4.55;1.50;;;;;;;15.93;60.73;99988.97;5022056;28;20050;-44
2024/03/18 11:36:16;;;;;;;4.72;1.55;;;;;;;15.90;60.10;99984.69;5000121;28;20053;-47
2024/03/18 11:38:41;;;;;;;0.90;0.60;;;;;;;15.70;60.30;99984.34;5000303;28;20060;-46
2024/03/18 11:41:07;;;;;;;2.78;0.82;;;;;;;15.62;60.60;99984.53;5017892;28;20037;-47
2024/03/18 11:43:34;;;;;;;1.20;1.05;;;;;;;15.60;60.94;99986.34;5016885;28;20049;-45